sensor_id;sensor_type;location;lat;lon;timestamp;temperature;humidity
24085;DHT22;12268;52.110;5.548;2022-12-07T00:00:30;7.30;99.90
24085;DHT22;12268;52.110;5.548;2022-12-07T00:02:55;7.20;99.90
24085;DHT22;12268;52.110;5.548;2022-12-07T00:05:21;7.20;99.90
24085;DHT22;12268;52.110;5.548;2022-12-07T00:07:46;7.10;99.90
24085;DHT22;12268;52.110;5.548;2022-12-07T00:10:12;7.10;99.90
24085;DHT22;12268;52.110;5.548;2022-12-07T00:12:37;7.10;99.90
24085;DHT22;12268;52.110;5.548;2022-12-07T00:15:03;7.10;99.90
24085;DHT22;12268;52.110;5.548;2022-12-07T00:17:28;7.10;99.90
24085;DHT22;12268;52.110;5.548;2022-12-07T00:19:54;6.90;99.90
24085;DHT22;12268;52.110;5.548;2022-12-07T00:22:19;7.10;99.90
24085;DHT22;12268;52.110;5.548;2022-12-07T00:24:45;7.30;99.90
24085;DHT22;12268;52.110;5.548;2022-12-07T00:27:10;7.30;99.90
24085;DHT22;12268;52.110;5.548;2022-12-07T00:29:36;7.10;99.90
24085;DHT22;12268;52.110;5.548;2022-12-07T00:32:02;6.90;99.90
24085;DHT22;12268;52.110;5.548;2022-12-07T00:34:28;6.90;99.90
24085;DHT22;12268;52.110;5.548;2022-12-07T00:36:53;6.80;99.90
24085;DHT22;12268;52.110;5.548;2022-12-07T00:39:19;6.70;99.90
24085;DHT22;12268;52.110;5.548;2022-12-07T00:41:44;6.70;99.90
24085;DHT22;12268;52.110;5.548;2022-12-07T00:44:10;6.70;99.90
24085;DHT22;12268;52.110;5.548;2022-12-07T00:46:35;6.60;99.90
24085;DHT22;12268;52.110;5.548;2022-12-07T00:49:01;6.50;99.90
24085;DHT22;12268;52.110;5.548;2022-12-07T00:51:26;6.60;99.90
24085;DHT22;12268;52.110;5.548;2022-12-07T00:53:53;6.70;99.90
24085;DHT22;12268;52.110;5.548;2022-12-07T00:56:21;6.50;99.90
24085;DHT22;12268;52.110;5.548;2022-12-07T00:59:01;6.40;99.90
24085;DHT22;12268;52.110;5.548;2022-12-07T01:01:28;6.40;99.90
24085;DHT22;12268;52.110;5.548;2022-12-07T01:03:54;6.50;99.90
24085;DHT22;12268;52.110;5.548;2022-12-07T01:06:25;6.50;99.90
24085;DHT22;12268;52.110;5.548;2022-12-07T01:08:50;6.40;99.90
24085;DHT22;12268;52.110;5.548;2022-12-07T01:11:19;6.70;99.90
24085;DHT22;12268;52.110;5.548;2022-12-07T01:13:45;6.70;99.90
24085;DHT22;12268;52.110;5.548;2022-12-07T01:16:13;6.60;99.90
24085;DHT22;12268;52.110;5.548;2022-12-07T01:18:39;6.50;99.90
24085;DHT22;12268;52.110;5.548;2022-12-07T01:21:07;6.40;99.90
24085;DHT22;12268;52.110;5.548;2022-12-07T01:23:35;6.50;99.90
24085;DHT22;12268;52.110;5.548;2022-12-07T01:26:04;6.50;99.90
24085;DHT22;12268;52.110;5.548;2022-12-07T01:28:30;6.60;99.90
24085;DHT22;12268;52.110;5.548;2022-12-07T01:31:03;6.60;99.90
24085;DHT22;12268;52.110;5.548;2022-12-07T01:33:31;6.40;99.90
24085;DHT22;12268;52.110;5.548;2022-12-07T01:36:04;6.30;99.90
24085;DHT22;12268;52.110;5.548;2022-12-07T01:38:31;6.10;99.90
24085;DHT22;12268;52.110;5.548;2022-12-07T01:40:57;6.10;99.90
24085;DHT22;12268;52.110;5.548;2022-12-07T01:43:24;6.30;99.90
24085;DHT22;12268;52.110;5.548;2022-12-07T01:45:50;6.60;99.90
24085;DHT22;12268;52.110;5.548;2022-12-07T01:48:19;6.70;99.90
24085;DHT22;12268;52.110;5.548;2022-12-07T01:50:48;6.70;99.90
24085;DHT22;12268;52.110;5.548;2022-12-07T01:53:16;6.80;99.90
24085;DHT22;12268;52.110;5.548;2022-12-07T01:55:45;6.80;99.90
24085;DHT22;12268;52.110;5.548;2022-12-07T01:58:12;6.80;99.90
24085;DHT22;12268;52.110;5.548;2022-12-07T02:00:40;6.80;99.90
24085;DHT22;12268;52.110;5.548;2022-12-07T02:03:18;6.80;99.90
24085;DHT22;12268;52.110;5.548;2022-12-07T02:05:45;6.80;99.90
24085;DHT22;12268;52.110;5.548;2022-12-07T02:08:12;6.80;99.90
24085;DHT22;12268;52.110;5.548;2022-12-07T02:10:38;6.80;99.90
24085;DHT22;12268;52.110;5.548;2022-12-07T02:13:08;6.90;99.90
24085;DHT22;12268;52.110;5.548;2022-12-07T02:15:55;6.90;99.90
24085;DHT22;12268;52.110;5.548;2022-12-07T02:18:43;7.00;99.90
24085;DHT22;12268;52.110;5.548;2022-12-07T02:26:43;6.40;99.90
24085;DHT22;12268;52.110;5.548;2022-12-07T02:29:21;6.30;99.90
24085;DHT22;12268;52.110;5.548;2022-12-07T02:32:14;6.30;99.90
24085;DHT22;12268;52.110;5.548;2022-12-07T02:34:51;6.20;99.90
24085;DHT22;12268;52.110;5.548;2022-12-07T02:40:05;6.20;99.90
24085;DHT22;12268;52.110;5.548;2022-12-07T02:42:40;6.20;99.90
24085;DHT22;12268;52.110;5.548;2022-12-07T02:45:07;6.30;99.90
24085;DHT22;12268;52.110;5.548;2022-12-07T02:47:34;6.30;99.90
24085;DHT22;12268;52.110;5.548;2022-12-07T02:50:04;6.30;99.90
24085;DHT22;12268;52.110;5.548;2022-12-07T02:52:30;6.30;99.90
24085;DHT22;12268;52.110;5.548;2022-12-07T02:54:56;6.20;99.90
24085;DHT22;12268;52.110;5.548;2022-12-07T02:57:45;6.20;99.90
24085;DHT22;12268;52.110;5.548;2022-12-07T03:00:17;6.50;99.90
24085;DHT22;12268;52.110;5.548;2022-12-07T03:02:55;6.80;99.90
24085;DHT22;12268;52.110;5.548;2022-12-07T03:05:27;7.00;99.90
24085;DHT22;12268;52.110;5.548;2022-12-07T03:13:24;7.00;99.90
24085;DHT22;12268;52.110;5.548;2022-12-07T03:16:12;6.90;99.90
24085;DHT22;12268;52.110;5.548;2022-12-07T03:19:06;7.00;99.90
24085;DHT22;12268;52.110;5.548;2022-12-07T03:21:37;7.00;99.90
24085;DHT22;12268;52.110;5.548;2022-12-07T03:24:09;7.00;99.90
24085;DHT22;12268;52.110;5.548;2022-12-07T03:26:44;7.10;99.90
24085;DHT22;12268;52.110;5.548;2022-12-07T03:29:20;6.90;99.90
24085;DHT22;12268;52.110;5.548;2022-12-07T03:31:54;6.70;99.90
24085;DHT22;12268;52.110;5.548;2022-12-07T03:34:32;6.60;99.90
24085;DHT22;12268;52.110;5.548;2022-12-07T03:37:12;6.80;99.90
24085;DHT22;12268;52.110;5.548;2022-12-07T03:42:46;6.80;99.90
24085;DHT22;12268;52.110;5.548;2022-12-07T03:45:12;6.90;99.90
24085;DHT22;12268;52.110;5.548;2022-12-07T03:48:00;7.10;99.90
24085;DHT22;12268;52.110;5.548;2022-12-07T03:50:45;7.10;99.90
24085;DHT22;12268;52.110;5.548;2022-12-07T03:53:22;6.80;99.90
24085;DHT22;12268;52.110;5.548;2022-12-07T03:55:49;6.80;99.90
24085;DHT22;12268;52.110;5.548;2022-12-07T03:58:19;6.70;99.90
24085;DHT22;12268;52.110;5.548;2022-12-07T04:00:46;6.50;99.90
24085;DHT22;12268;52.110;5.548;2022-12-07T04:03:12;6.40;99.90
24085;DHT22;12268;52.110;5.548;2022-12-07T04:05:38;6.60;99.90
24085;DHT22;12268;52.110;5.548;2022-12-07T04:08:04;6.70;99.90
24085;DHT22;12268;52.110;5.548;2022-12-07T04:10:30;6.80;99.90
24085;DHT22;12268;52.110;5.548;2022-12-07T04:12:55;6.60;99.90
24085;DHT22;12268;52.110;5.548;2022-12-07T04:15:21;6.60;99.90
24085;DHT22;12268;52.110;5.548;2022-12-07T04:17:47;6.70;99.90
24085;DHT22;12268;52.110;5.548;2022-12-07T04:20:12;7.10;99.90
24085;DHT22;12268;52.110;5.548;2022-12-07T04:22:38;7.00;99.90
24085;DHT22;12268;52.110;5.548;2022-12-07T04:25:04;7.00;99.90
24085;DHT22;12268;52.110;5.548;2022-12-07T04:27:30;7.10;99.90
24085;DHT22;12268;52.110;5.548;2022-12-07T04:29:55;7.30;99.90
24085;DHT22;12268;52.110;5.548;2022-12-07T04:32:22;7.40;99.90
24085;DHT22;12268;52.110;5.548;2022-12-07T04:34:47;7.50;99.90
24085;DHT22;12268;52.110;5.548;2022-12-07T04:37:13;7.60;99.90
24085;DHT22;12268;52.110;5.548;2022-12-07T04:39:39;7.60;99.90
24085;DHT22;12268;52.110;5.548;2022-12-07T04:42:04;7.50;99.90
24085;DHT22;12268;52.110;5.548;2022-12-07T04:44:30;7.40;99.90
24085;DHT22;12268;52.110;5.548;2022-12-07T04:46:56;7.20;99.90
24085;DHT22;12268;52.110;5.548;2022-12-07T04:49:23;7.10;99.90
24085;DHT22;12268;52.110;5.548;2022-12-07T04:51:50;6.80;99.90
24085;DHT22;12268;52.110;5.548;2022-12-07T04:54:16;6.80;99.90
24085;DHT22;12268;52.110;5.548;2022-12-07T04:56:42;6.90;99.90
24085;DHT22;12268;52.110;5.548;2022-12-07T04:59:13;6.90;99.90
24085;DHT22;12268;52.110;5.548;2022-12-07T05:01:39;7.10;99.90
24085;DHT22;12268;52.110;5.548;2022-12-07T05:04:05;7.10;99.90
24085;DHT22;12268;52.110;5.548;2022-12-07T05:06:31;7.10;99.90
24085;DHT22;12268;52.110;5.548;2022-12-07T05:08:56;7.30;99.90
24085;DHT22;12268;52.110;5.548;2022-12-07T05:11:22;7.20;99.90
24085;DHT22;12268;52.110;5.548;2022-12-07T05:14:12;7.10;99.90
24085;DHT22;12268;52.110;5.548;2022-12-07T05:16:39;7.00;99.90
24085;DHT22;12268;52.110;5.548;2022-12-07T05:19:05;6.90;99.90
24085;DHT22;12268;52.110;5.548;2022-12-07T05:21:30;6.80;99.90
24085;DHT22;12268;52.110;5.548;2022-12-07T05:23:56;6.80;99.90
24085;DHT22;12268;52.110;5.548;2022-12-07T05:26:22;6.70;99.90
24085;DHT22;12268;52.110;5.548;2022-12-07T05:28:55;6.50;99.90
24085;DHT22;12268;52.110;5.548;2022-12-07T05:31:21;6.60;99.90
24085;DHT22;12268;52.110;5.548;2022-12-07T05:33:47;6.40;99.90
24085;DHT22;12268;52.110;5.548;2022-12-07T05:36:13;6.30;99.90
24085;DHT22;12268;52.110;5.548;2022-12-07T05:38:38;6.20;99.90
24085;DHT22;12268;52.110;5.548;2022-12-07T05:41:05;6.10;99.90
24085;DHT22;12268;52.110;5.548;2022-12-07T05:43:31;6.20;99.90
24085;DHT22;12268;52.110;5.548;2022-12-07T05:45:57;6.40;99.90
24085;DHT22;12268;52.110;5.548;2022-12-07T05:48:23;6.60;99.90
24085;DHT22;12268;52.110;5.548;2022-12-07T05:50:49;6.60;99.90
24085;DHT22;12268;52.110;5.548;2022-12-07T05:53:15;6.60;99.90
24085;DHT22;12268;52.110;5.548;2022-12-07T05:55:41;6.70;99.90
24085;DHT22;12268;52.110;5.548;2022-12-07T05:58:06;6.70;99.90
24085;DHT22;12268;52.110;5.548;2022-12-07T06:00:50;6.70;99.90
24085;DHT22;12268;52.110;5.548;2022-12-07T06:03:16;6.80;99.90
24085;DHT22;12268;52.110;5.548;2022-12-07T06:05:42;6.70;99.90
24085;DHT22;12268;52.110;5.548;2022-12-07T06:08:07;6.60;99.90
24085;DHT22;12268;52.110;5.548;2022-12-07T06:10:33;6.40;99.90
24085;DHT22;12268;52.110;5.548;2022-12-07T06:12:58;6.40;99.90
24085;DHT22;12268;52.110;5.548;2022-12-07T06:15:24;6.50;99.90
24085;DHT22;12268;52.110;5.548;2022-12-07T06:17:49;6.60;99.90
24085;DHT22;12268;52.110;5.548;2022-12-07T06:20:15;6.50;99.90
24085;DHT22;12268;52.110;5.548;2022-12-07T06:22:40;6.60;99.90
24085;DHT22;12268;52.110;5.548;2022-12-07T06:25:06;6.50;99.90
24085;DHT22;12268;52.110;5.548;2022-12-07T06:27:32;6.50;99.90
24085;DHT22;12268;52.110;5.548;2022-12-07T06:29:58;6.40;99.90
24085;DHT22;12268;52.110;5.548;2022-12-07T06:32:24;6.40;99.90
24085;DHT22;12268;52.110;5.548;2022-12-07T06:34:49;6.70;99.90
24085;DHT22;12268;52.110;5.548;2022-12-07T06:37:15;6.70;99.90
24085;DHT22;12268;52.110;5.548;2022-12-07T06:39:40;6.80;99.90
24085;DHT22;12268;52.110;5.548;2022-12-07T06:42:06;6.80;99.90
24085;DHT22;12268;52.110;5.548;2022-12-07T06:44:31;6.80;99.90
24085;DHT22;12268;52.110;5.548;2022-12-07T06:46:58;6.80;99.90
24085;DHT22;12268;52.110;5.548;2022-12-07T06:49:23;6.80;99.90
24085;DHT22;12268;52.110;5.548;2022-12-07T06:51:49;6.70;99.90
24085;DHT22;12268;52.110;5.548;2022-12-07T06:54:15;6.80;99.90
24085;DHT22;12268;52.110;5.548;2022-12-07T06:56:41;6.80;99.90
24085;DHT22;12268;52.110;5.548;2022-12-07T06:59:07;6.80;99.90
24085;DHT22;12268;52.110;5.548;2022-12-07T07:01:34;6.90;99.90
24085;DHT22;12268;52.110;5.548;2022-12-07T07:14:21;6.90;99.90
24085;DHT22;12268;52.110;5.548;2022-12-07T07:16:47;6.80;99.90
24085;DHT22;12268;52.110;5.548;2022-12-07T07:19:12;6.80;99.90
24085;DHT22;12268;52.110;5.548;2022-12-07T07:21:38;6.60;99.90
24085;DHT22;12268;52.110;5.548;2022-12-07T07:24:04;6.50;99.90
24085;DHT22;12268;52.110;5.548;2022-12-07T07:26:29;6.50;99.90
24085;DHT22;12268;52.110;5.548;2022-12-07T07:28:55;6.60;99.90
24085;DHT22;12268;52.110;5.548;2022-12-07T07:31:21;6.60;99.90
24085;DHT22;12268;52.110;5.548;2022-12-07T07:33:47;6.60;99.90
24085;DHT22;12268;52.110;5.548;2022-12-07T07:36:12;6.60;99.90
24085;DHT22;12268;52.110;5.548;2022-12-07T07:38:38;6.70;99.90
24085;DHT22;12268;52.110;5.548;2022-12-07T07:41:04;6.50;99.90
24085;DHT22;12268;52.110;5.548;2022-12-07T07:43:30;6.30;99.90
24085;DHT22;12268;52.110;5.548;2022-12-07T07:45:55;6.20;99.90
24085;DHT22;12268;52.110;5.548;2022-12-07T07:48:21;6.40;99.90
24085;DHT22;12268;52.110;5.548;2022-12-07T07:50:48;6.30;99.90
24085;DHT22;12268;52.110;5.548;2022-12-07T07:53:13;6.50;99.90
24085;DHT22;12268;52.110;5.548;2022-12-07T07:55:39;6.60;99.90
24085;DHT22;12268;52.110;5.548;2022-12-07T07:58:04;6.60;99.90
24085;DHT22;12268;52.110;5.548;2022-12-07T08:00:30;6.60;99.90
24085;DHT22;12268;52.110;5.548;2022-12-07T08:02:55;6.60;99.90
24085;DHT22;12268;52.110;5.548;2022-12-07T08:05:21;6.60;99.90
24085;DHT22;12268;52.110;5.548;2022-12-07T08:07:47;6.60;99.90
24085;DHT22;12268;52.110;5.548;2022-12-07T08:10:13;6.60;99.90
24085;DHT22;12268;52.110;5.548;2022-12-07T08:12:40;6.80;99.90
24085;DHT22;12268;52.110;5.548;2022-12-07T08:15:27;6.90;99.90
24085;DHT22;12268;52.110;5.548;2022-12-07T08:17:53;7.10;99.90
24085;DHT22;12268;52.110;5.548;2022-12-07T08:20:19;7.30;99.90
24085;DHT22;12268;52.110;5.548;2022-12-07T08:22:45;7.30;99.90
24085;DHT22;12268;52.110;5.548;2022-12-07T08:25:10;7.50;99.90
24085;DHT22;12268;52.110;5.548;2022-12-07T08:27:36;7.60;99.90
24085;DHT22;12268;52.110;5.548;2022-12-07T08:30:01;7.70;99.90
24085;DHT22;12268;52.110;5.548;2022-12-07T08:32:27;7.70;99.90
24085;DHT22;12268;52.110;5.548;2022-12-07T08:34:52;7.70;99.90
24085;DHT22;12268;52.110;5.548;2022-12-07T08:37:18;7.60;99.90
24085;DHT22;12268;52.110;5.548;2022-12-07T08:39:43;7.70;99.90
24085;DHT22;12268;52.110;5.548;2022-12-07T08:42:09;7.70;99.90
24085;DHT22;12268;52.110;5.548;2022-12-07T08:44:34;7.80;99.90
24085;DHT22;12268;52.110;5.548;2022-12-07T08:47:02;8.00;99.90
24085;DHT22;12268;52.110;5.548;2022-12-07T08:49:41;8.40;99.90
24085;DHT22;12268;52.110;5.548;2022-12-07T08:52:08;8.60;99.90
24085;DHT22;12268;52.110;5.548;2022-12-07T08:54:36;8.70;99.90
24085;DHT22;12268;52.110;5.548;2022-12-07T08:57:02;8.90;99.90
24085;DHT22;12268;52.110;5.548;2022-12-07T08:59:28;9.10;99.90
24085;DHT22;12268;52.110;5.548;2022-12-07T09:01:54;9.20;99.90
24085;DHT22;12268;52.110;5.548;2022-12-07T09:04:20;9.30;99.90
24085;DHT22;12268;52.110;5.548;2022-12-07T09:06:46;9.30;99.90
24085;DHT22;12268;52.110;5.548;2022-12-07T09:09:13;9.20;99.90
24085;DHT22;12268;52.110;5.548;2022-12-07T09:11:39;9.10;99.90
24085;DHT22;12268;52.110;5.548;2022-12-07T09:14:05;9.20;99.90
24085;DHT22;12268;52.110;5.548;2022-12-07T09:16:30;9.20;99.90
24085;DHT22;12268;52.110;5.548;2022-12-07T09:18:56;9.40;99.90
24085;DHT22;12268;52.110;5.548;2022-12-07T09:21:22;10.30;99.90
24085;DHT22;12268;52.110;5.548;2022-12-07T09:23:47;11.40;99.90
24085;DHT22;12268;52.110;5.548;2022-12-07T09:26:13;11.90;99.90
24085;DHT22;12268;52.110;5.548;2022-12-07T09:28:38;12.20;99.90
24085;DHT22;12268;52.110;5.548;2022-12-07T09:31:04;12.30;99.90
24085;DHT22;12268;52.110;5.548;2022-12-07T09:33:30;12.80;99.90
24085;DHT22;12268;52.110;5.548;2022-12-07T09:35:55;13.80;99.90
24085;DHT22;12268;52.110;5.548;2022-12-07T09:38:21;15.00;99.90
24085;DHT22;12268;52.110;5.548;2022-12-07T09:40:47;16.20;99.90
24085;DHT22;12268;52.110;5.548;2022-12-07T09:43:19;17.00;99.90
24085;DHT22;12268;52.110;5.548;2022-12-07T09:45:47;16.90;99.90
24085;DHT22;12268;52.110;5.548;2022-12-07T09:48:34;16.60;99.90
24085;DHT22;12268;52.110;5.548;2022-12-07T09:51:14;15.80;99.90
24085;DHT22;12268;52.110;5.548;2022-12-07T09:53:41;14.90;99.90
24085;DHT22;12268;52.110;5.548;2022-12-07T09:56:12;14.10;99.90
24085;DHT22;12268;52.110;5.548;2022-12-07T09:58:39;13.30;99.90
24085;DHT22;12268;52.110;5.548;2022-12-07T10:03:40;12.70;99.90
24085;DHT22;12268;52.110;5.548;2022-12-07T10:06:06;12.80;99.90
24085;DHT22;12268;52.110;5.548;2022-12-07T10:08:32;12.90;99.90
24085;DHT22;12268;52.110;5.548;2022-12-07T10:11:01;13.30;99.90
24085;DHT22;12268;52.110;5.548;2022-12-07T10:13:40;13.60;99.90
24085;DHT22;12268;52.110;5.548;2022-12-07T10:16:09;13.60;99.90
24085;DHT22;12268;52.110;5.548;2022-12-07T10:18:53;13.50;99.90
24085;DHT22;12268;52.110;5.548;2022-12-07T10:21:21;13.10;99.90
24085;DHT22;12268;52.110;5.548;2022-12-07T10:32:41;13.20;99.90
24085;DHT22;12268;52.110;5.548;2022-12-07T10:34:47;13.50;99.90
24085;DHT22;12268;52.110;5.548;2022-12-07T10:39:50;15.00;99.90
24085;DHT22;12268;52.110;5.548;2022-12-07T10:42:24;15.70;99.90
24085;DHT22;12268;52.110;5.548;2022-12-07T10:45:13;15.40;99.90
24085;DHT22;12268;52.110;5.548;2022-12-07T10:58:42;17.80;99.90
24085;DHT22;12268;52.110;5.548;2022-12-07T11:04:21;18.60;99.90
24085;DHT22;12268;52.110;5.548;2022-12-07T11:07:18;18.60;99.90
24085;DHT22;12268;52.110;5.548;2022-12-07T11:10:09;17.80;99.90
24085;DHT22;12268;52.110;5.548;2022-12-07T11:12:57;16.90;99.90
24085;DHT22;12268;52.110;5.548;2022-12-07T11:18:29;15.80;99.90
24085;DHT22;12268;52.110;5.548;2022-12-07T11:23:48;15.40;99.90
24085;DHT22;12268;52.110;5.548;2022-12-07T11:26:49;14.70;99.90
24085;DHT22;12268;52.110;5.548;2022-12-07T11:32:04;13.30;99.90
24085;DHT22;12268;52.110;5.548;2022-12-07T11:37:11;12.50;99.90
24085;DHT22;12268;52.110;5.548;2022-12-07T11:39:48;12.30;99.90
24085;DHT22;12268;52.110;5.548;2022-12-07T11:42:37;12.10;99.90
24085;DHT22;12268;52.110;5.548;2022-12-07T11:45:16;11.60;99.90
24085;DHT22;12268;52.110;5.548;2022-12-07T11:47:51;11.30;99.90
24085;DHT22;12268;52.110;5.548;2022-12-07T11:50:25;11.20;99.90
24085;DHT22;12268;52.110;5.548;2022-12-07T11:52:58;11.40;99.90
24085;DHT22;12268;52.110;5.548;2022-12-07T12:01:22;11.80;99.90
24085;DHT22;12268;52.110;5.548;2022-12-07T12:03:52;11.80;99.90
24085;DHT22;12268;52.110;5.548;2022-12-07T12:06:19;11.70;99.90
24085;DHT22;12268;52.110;5.548;2022-12-07T12:11:49;11.70;99.90
24085;DHT22;12268;52.110;5.548;2022-12-07T12:14:24;11.60;99.90
24085;DHT22;12268;52.110;5.548;2022-12-07T12:22:40;11.10;99.90
24085;DHT22;12268;52.110;5.548;2022-12-07T12:25:47;11.00;99.90
24085;DHT22;12268;52.110;5.548;2022-12-07T12:28:05;11.00;99.90
24085;DHT22;12268;52.110;5.548;2022-12-07T12:30:39;10.90;99.90
24085;DHT22;12268;52.110;5.548;2022-12-07T12:33:28;10.90;99.90
24085;DHT22;12268;52.110;5.548;2022-12-07T12:46:53;10.50;99.90
24085;DHT22;12268;52.110;5.548;2022-12-07T12:51:54;10.70;99.90
24085;DHT22;12268;52.110;5.548;2022-12-07T12:57:29;10.80;99.90
24085;DHT22;12268;52.110;5.548;2022-12-07T13:05:21;11.20;99.90
24085;DHT22;12268;52.110;5.548;2022-12-07T13:08:32;11.30;99.90
24085;DHT22;12268;52.110;5.548;2022-12-07T13:10:39;11.40;99.90
24085;DHT22;12268;52.110;5.548;2022-12-07T13:15:48;11.30;99.90
24085;DHT22;12268;52.110;5.548;2022-12-07T13:29:02;11.30;99.90
24085;DHT22;12268;52.110;5.548;2022-12-07T13:31:37;11.30;99.90
24085;DHT22;12268;52.110;5.548;2022-12-07T13:34:26;11.20;99.90
24085;DHT22;12268;52.110;5.548;2022-12-07T13:36:51;11.20;99.90
24085;DHT22;12268;52.110;5.548;2022-12-07T15:51:12;9.90;99.90
24085;DHT22;12268;52.110;5.548;2022-12-07T15:53:38;10.10;99.90
24085;DHT22;12268;52.110;5.548;2022-12-07T15:56:07;9.90;99.90
24085;DHT22;12268;52.110;5.548;2022-12-07T15:58:33;10.10;99.90
24085;DHT22;12268;52.110;5.548;2022-12-07T16:00:58;10.10;99.90
24085;DHT22;12268;52.110;5.548;2022-12-07T16:03:24;9.90;99.90
24085;DHT22;12268;52.110;5.548;2022-12-07T16:05:51;9.70;99.90
24085;DHT22;12268;52.110;5.548;2022-12-07T16:08:17;9.70;99.90
24085;DHT22;12268;52.110;5.548;2022-12-07T16:10:42;9.70;99.90
24085;DHT22;12268;52.110;5.548;2022-12-07T16:13:09;9.60;99.90
24085;DHT22;12268;52.110;5.548;2022-12-07T16:15:39;9.60;99.90
24085;DHT22;12268;52.110;5.548;2022-12-07T16:18:04;9.50;99.90
24085;DHT22;12268;52.110;5.548;2022-12-07T16:20:30;9.30;99.90
24085;DHT22;12268;52.110;5.548;2022-12-07T16:22:55;9.40;99.90
24085;DHT22;12268;52.110;5.548;2022-12-07T16:25:21;9.40;99.90
24085;DHT22;12268;52.110;5.548;2022-12-07T16:27:47;9.40;99.90
24085;DHT22;12268;52.110;5.548;2022-12-07T16:30:14;9.40;99.90
24085;DHT22;12268;52.110;5.548;2022-12-07T16:32:40;9.40;99.90
24085;DHT22;12268;52.110;5.548;2022-12-07T16:35:06;9.30;99.90
24085;DHT22;12268;52.110;5.548;2022-12-07T16:37:31;9.30;99.90
24085;DHT22;12268;52.110;5.548;2022-12-07T16:39:57;9.30;99.90
24085;DHT22;12268;52.110;5.548;2022-12-07T16:42:22;9.30;99.90
24085;DHT22;12268;52.110;5.548;2022-12-07T16:44:48;9.30;99.90
24085;DHT22;12268;52.110;5.548;2022-12-07T16:47:13;9.20;99.90
24085;DHT22;12268;52.110;5.548;2022-12-07T16:49:39;9.30;99.90
24085;DHT22;12268;52.110;5.548;2022-12-07T16:52:04;9.30;99.90
24085;DHT22;12268;52.110;5.548;2022-12-07T16:54:30;9.20;99.90
24085;DHT22;12268;52.110;5.548;2022-12-07T16:56:58;9.30;99.90
24085;DHT22;12268;52.110;5.548;2022-12-07T16:59:24;9.20;99.90
24085;DHT22;12268;52.110;5.548;2022-12-07T17:01:49;8.90;99.90
24085;DHT22;12268;52.110;5.548;2022-12-07T17:04:15;8.90;99.90
24085;DHT22;12268;52.110;5.548;2022-12-07T17:06:40;8.90;99.90
24085;DHT22;12268;52.110;5.548;2022-12-07T17:09:06;8.90;99.90
24085;DHT22;12268;52.110;5.548;2022-12-07T17:11:35;8.90;99.90
24085;DHT22;12268;52.110;5.548;2022-12-07T17:14:01;8.80;99.90
24085;DHT22;12268;52.110;5.548;2022-12-07T17:16:45;8.90;99.90
24085;DHT22;12268;52.110;5.548;2022-12-07T17:19:14;8.90;99.90
24085;DHT22;12268;52.110;5.548;2022-12-07T17:21:40;8.90;99.90
24085;DHT22;12268;52.110;5.548;2022-12-07T17:24:08;8.80;99.90
24085;DHT22;12268;52.110;5.548;2022-12-07T17:26:34;8.80;99.90
24085;DHT22;12268;52.110;5.548;2022-12-07T17:29:00;8.80;99.90
24085;DHT22;12268;52.110;5.548;2022-12-07T17:31:26;8.70;99.90
24085;DHT22;12268;52.110;5.548;2022-12-07T17:33:52;8.80;99.90
24085;DHT22;12268;52.110;5.548;2022-12-07T17:36:20;8.70;99.90
24085;DHT22;12268;52.110;5.548;2022-12-07T17:38:46;8.80;99.90
24085;DHT22;12268;52.110;5.548;2022-12-07T17:41:18;8.80;99.90
24085;DHT22;12268;52.110;5.548;2022-12-07T17:44:03;8.80;99.90
24085;DHT22;12268;52.110;5.548;2022-12-07T17:46:29;8.80;99.90
24085;DHT22;12268;52.110;5.548;2022-12-07T17:48:56;8.80;99.90
24085;DHT22;12268;52.110;5.548;2022-12-07T17:51:22;8.50;99.90
24085;DHT22;12268;52.110;5.548;2022-12-07T17:54:06;8.20;99.90
24085;DHT22;12268;52.110;5.548;2022-12-07T17:56:31;8.10;99.90
24085;DHT22;12268;52.110;5.548;2022-12-07T17:58:57;8.20;99.90
24085;DHT22;12268;52.110;5.548;2022-12-07T18:01:23;8.30;99.90
24085;DHT22;12268;52.110;5.548;2022-12-07T18:03:48;8.20;99.90
24085;DHT22;12268;52.110;5.548;2022-12-07T18:06:14;8.20;99.90
24085;DHT22;12268;52.110;5.548;2022-12-07T18:08:39;8.20;99.90
24085;DHT22;12268;52.110;5.548;2022-12-07T18:11:05;8.10;99.90
24085;DHT22;12268;52.110;5.548;2022-12-07T18:13:32;8.20;99.90
24085;DHT22;12268;52.110;5.548;2022-12-07T18:16:02;8.30;99.90
24085;DHT22;12268;52.110;5.548;2022-12-07T18:18:28;8.30;99.90
24085;DHT22;12268;52.110;5.548;2022-12-07T18:20:53;8.50;99.90
24085;DHT22;12268;52.110;5.548;2022-12-07T18:23:19;8.50;99.90
24085;DHT22;12268;52.110;5.548;2022-12-07T18:25:52;8.60;99.90
24085;DHT22;12268;52.110;5.548;2022-12-07T18:28:17;8.50;99.90
24085;DHT22;12268;52.110;5.548;2022-12-07T18:30:44;8.40;99.90
24085;DHT22;12268;52.110;5.548;2022-12-07T18:33:19;8.40;99.90
24085;DHT22;12268;52.110;5.548;2022-12-07T18:35:46;8.20;99.90
24085;DHT22;12268;52.110;5.548;2022-12-07T18:38:15;8.20;99.90
24085;DHT22;12268;52.110;5.548;2022-12-07T18:40:42;8.10;99.90
24085;DHT22;12268;52.110;5.548;2022-12-07T18:43:08;7.90;99.90
24085;DHT22;12268;52.110;5.548;2022-12-07T18:45:35;7.80;99.90
24085;DHT22;12268;52.110;5.548;2022-12-07T18:48:01;7.80;99.90
24085;DHT22;12268;52.110;5.548;2022-12-07T18:50:26;7.70;99.90
24085;DHT22;12268;52.110;5.548;2022-12-07T18:52:52;7.60;99.90
24085;DHT22;12268;52.110;5.548;2022-12-07T18:55:17;7.60;99.90
24085;DHT22;12268;52.110;5.548;2022-12-07T18:57:43;7.50;99.90
24085;DHT22;12268;52.110;5.548;2022-12-07T19:00:09;7.40;99.90
24085;DHT22;12268;52.110;5.548;2022-12-07T19:02:35;7.50;99.90
24085;DHT22;12268;52.110;5.548;2022-12-07T19:05:01;7.50;99.90
24085;DHT22;12268;52.110;5.548;2022-12-07T19:07:26;7.60;99.90
24085;DHT22;12268;52.110;5.548;2022-12-07T19:09:52;7.80;99.90
24085;DHT22;12268;52.110;5.548;2022-12-07T19:12:18;7.80;99.90
24085;DHT22;12268;52.110;5.548;2022-12-07T19:14:43;7.70;99.90
24085;DHT22;12268;52.110;5.548;2022-12-07T19:17:11;7.80;99.90
24085;DHT22;12268;52.110;5.548;2022-12-07T19:19:40;8.00;99.90
24085;DHT22;12268;52.110;5.548;2022-12-07T19:22:06;8.00;99.90
24085;DHT22;12268;52.110;5.548;2022-12-07T19:24:33;7.80;99.90
24085;DHT22;12268;52.110;5.548;2022-12-07T19:26:58;7.70;99.90
24085;DHT22;12268;52.110;5.548;2022-12-07T19:29:24;7.60;99.90
24085;DHT22;12268;52.110;5.548;2022-12-07T19:31:52;7.70;99.90
24085;DHT22;12268;52.110;5.548;2022-12-07T19:34:18;7.70;99.90
24085;DHT22;12268;52.110;5.548;2022-12-07T19:36:44;7.80;99.90
24085;DHT22;12268;52.110;5.548;2022-12-07T19:39:10;7.80;99.90
24085;DHT22;12268;52.110;5.548;2022-12-07T19:41:36;8.00;99.90
24085;DHT22;12268;52.110;5.548;2022-12-07T19:44:06;8.30;99.90
24085;DHT22;12268;52.110;5.548;2022-12-07T19:46:33;8.50;99.90
24085;DHT22;12268;52.110;5.548;2022-12-07T19:48:59;8.60;99.90
24085;DHT22;12268;52.110;5.548;2022-12-07T19:51:26;8.60;99.90
24085;DHT22;12268;52.110;5.548;2022-12-07T19:53:52;8.50;99.90
24085;DHT22;12268;52.110;5.548;2022-12-07T19:56:19;8.30;99.90
24085;DHT22;12268;52.110;5.548;2022-12-07T19:58:46;8.20;99.90